sensor_id;sensor_type;location;lat;lon;timestamp;temperature;humidity
6556;DHT22;3311;48.32423000;14.29074500;2024-01-06T00:00:22;11.10;69.50
6556;DHT22;3311;48.32423000;14.29074500;2024-01-06T00:02:51;11.10;69.50
6556;DHT22;3311;48.32423000;14.29074500;2024-01-06T00:05:18;11.00;70.00
6556;DHT22;3311;48.32423000;14.29074500;2024-01-06T00:07:46;11.10;69.50
6556;DHT22;3311;48.32423000;14.29074500;2024-01-06T00:10:13;11.30;69.30
6556;DHT22;3311;48.32423000;14.29074500;2024-01-06T00:12:41;11.30;69.00
6556;DHT22;3311;48.32423000;14.29074500;2024-01-06T00:15:09;11.20;69.00
6556;DHT22;3311;48.32423000;14.29074500;2024-01-06T00:17:36;11.30;68.90
6556;DHT22;3311;48.32423000;14.29074500;2024-01-06T00:20:07;11.30;69.00
6556;DHT22;3311;48.32423000;14.29074500;2024-01-06T00:22:35;11.30;69.10
6556;DHT22;3311;48.32423000;14.29074500;2024-01-06T00:25:02;11.10;69.30
6556;DHT22;3311;48.32423000;14.29074500;2024-01-06T00:27:30;11.10;69.60
6556;DHT22;3311;48.32423000;14.29074500;2024-01-06T00:29:57;11.20;69.60
6556;DHT22;3311;48.32423000;14.29074500;2024-01-06T00:32:25;11.20;69.50
6556;DHT22;3311;48.32423000;14.29074500;2024-01-06T00:34:52;11.10;69.50
6556;DHT22;3311;48.32423000;14.29074500;2024-01-06T00:37:21;11.10;69.70
6556;DHT22;3311;48.32423000;14.29074500;2024-01-06T00:39:48;11.10;69.90
6556;DHT22;3311;48.32423000;14.29074500;2024-01-06T00:42:16;11.10;69.90
6556;DHT22;3311;48.32423000;14.29074500;2024-01-06T00:44:43;11.10;69.70
6556;DHT22;3311;48.32423000;14.29074500;2024-01-06T00:47:11;11.10;69.90
6556;DHT22;3311;48.32423000;14.29074500;2024-01-06T00:49:38;11.10;69.40
6556;DHT22;3311;48.32423000;14.29074500;2024-01-06T00:52:06;11.10;69.90
6556;DHT22;3311;48.32423000;14.29074500;2024-01-06T00:54:35;11.10;70.00
6556;DHT22;3311;48.32423000;14.29074500;2024-01-06T00:57:03;11.00;70.20
6556;DHT22;3311;48.32423000;14.29074500;2024-01-06T00:59:30;11.00;70.30
6556;DHT22;3311;48.32423000;14.29074500;2024-01-06T01:01:58;11.00;70.40
6556;DHT22;3311;48.32423000;14.29074500;2024-01-06T01:04:25;11.10;70.10
6556;DHT22;3311;48.32423000;14.29074500;2024-01-06T01:06:53;11.00;70.40
6556;DHT22;3311;48.32423000;14.29074500;2024-01-06T01:09:19;11.00;70.40
6556;DHT22;3311;48.32423000;14.29074500;2024-01-06T01:11:48;11.10;69.70
6556;DHT22;3311;48.32423000;14.29074500;2024-01-06T01:14:15;11.10;70.20
6556;DHT22;3311;48.32423000;14.29074500;2024-01-06T01:16:44;11.10;70.30
6556;DHT22;3311;48.32423000;14.29074500;2024-01-06T01:19:12;11.10;70.30
6556;DHT22;3311;48.32423000;14.29074500;2024-01-06T01:21:39;11.00;70.60
6556;DHT22;3311;48.32423000;14.29074500;2024-01-06T01:24:07;11.10;70.60
6556;DHT22;3311;48.32423000;14.29074500;2024-01-06T01:26:34;11.10;70.50
6556;DHT22;3311;48.32423000;14.29074500;2024-01-06T01:29:03;11.10;70.40
6556;DHT22;3311;48.32423000;14.29074500;2024-01-06T01:31:30;11.10;70.50
6556;DHT22;3311;48.32423000;14.29074500;2024-01-06T01:33:58;11.20;70.40
6556;DHT22;3311;48.32423000;14.29074500;2024-01-06T01:36:25;11.20;70.30
6556;DHT22;3311;48.32423000;14.29074500;2024-01-06T01:38:53;11.30;70.20
6556;DHT22;3311;48.32423000;14.29074500;2024-01-06T01:41:20;11.20;70.20
6556;DHT22;3311;48.32423000;14.29074500;2024-01-06T01:43:47;11.10;70.40
6556;DHT22;3311;48.32423000;14.29074500;2024-01-06T01:46:16;11.10;70.50
6556;DHT22;3311;48.32423000;14.29074500;2024-01-06T01:48:44;11.20;70.50
6556;DHT22;3311;48.32423000;14.29074500;2024-01-06T01:51:12;11.20;70.70
6556;DHT22;3311;48.32423000;14.29074500;2024-01-06T01:53:41;11.10;70.90
6556;DHT22;3311;48.32423000;14.29074500;2024-01-06T01:56:09;11.10;70.80
6556;DHT22;3311;48.32423000;14.29074500;2024-01-06T01:58:37;11.10;70.90
6556;DHT22;3311;48.32423000;14.29074500;2024-01-06T02:01:04;11.20;70.80
6556;DHT22;3311;48.32423000;14.29074500;2024-01-06T02:03:33;11.20;70.60
6556;DHT22;3311;48.32423000;14.29074500;2024-01-06T02:06:02;11.30;70.70
6556;DHT22;3311;48.32423000;14.29074500;2024-01-06T02:08:30;11.30;70.90
6556;DHT22;3311;48.32423000;14.29074500;2024-01-06T02:10:57;11.30;70.30
6556;DHT22;3311;48.32423000;14.29074500;2024-01-06T02:13:29;11.40;70.30
6556;DHT22;3311;48.32423000;14.29074500;2024-01-06T02:15:59;11.30;70.40
6556;DHT22;3311;48.32423000;14.29074500;2024-01-06T02:18:27;11.30;70.70
6556;DHT22;3311;48.32423000;14.29074500;2024-01-06T02:20:58;11.20;70.80
6556;DHT22;3311;48.32423000;14.29074500;2024-01-06T02:23:28;11.10;71.20
6556;DHT22;3311;48.32423000;14.29074500;2024-01-06T02:25:56;11.10;71.40
6556;DHT22;3311;48.32423000;14.29074500;2024-01-06T02:28:24;11.20;71.30
6556;DHT22;3311;48.32423000;14.29074500;2024-01-06T02:30:51;11.10;71.30
6556;DHT22;3311;48.32423000;14.29074500;2024-01-06T02:33:19;11.20;71.20
6556;DHT22;3311;48.32423000;14.29074500;2024-01-06T02:35:46;11.20;71.20
6556;DHT22;3311;48.32423000;14.29074500;2024-01-06T02:38:13;11.10;71.30
6556;DHT22;3311;48.32423000;14.29074500;2024-01-06T02:40:42;11.10;71.30
6556;DHT22;3311;48.32423000;14.29074500;2024-01-06T02:43:10;11.10;71.10
6556;DHT22;3311;48.32423000;14.29074500;2024-01-06T02:45:37;11.10;71.50
6556;DHT22;3311;48.32423000;14.29074500;2024-01-06T02:48:05;11.20;71.40
6556;DHT22;3311;48.32423000;14.29074500;2024-01-06T02:50:33;11.10;71.30
6556;DHT22;3311;48.32423000;14.29074500;2024-01-06T02:53:00;11.10;71.50
6556;DHT22;3311;48.32423000;14.29074500;2024-01-06T02:55:27;11.10;71.60
6556;DHT22;3311;48.32423000;14.29074500;2024-01-06T02:57:56;11.10;71.50
6556;DHT22;3311;48.32423000;14.29074500;2024-01-06T03:00:24;11.00;71.90
6556;DHT22;3311;48.32423000;14.29074500;2024-01-06T03:02:52;11.10;71.90
6556;DHT22;3311;48.32423000;14.29074500;2024-01-06T03:05:19;11.10;71.70
6556;DHT22;3311;48.32423000;14.29074500;2024-01-06T03:07:47;11.10;71.50
6556;DHT22;3311;48.32423000;14.29074500;2024-01-06T03:10:14;11.20;71.40
6556;DHT22;3311;48.32423000;14.29074500;2024-01-06T03:12:42;11.10;71.40
6556;DHT22;3311;48.32423000;14.29074500;2024-01-06T03:15:11;11.20;71.30
6556;DHT22;3311;48.32423000;14.29074500;2024-01-06T03:17:38;11.20;71.10
6556;DHT22;3311;48.32423000;14.29074500;2024-01-06T03:20:07;11.20;71.00
6556;DHT22;3311;48.32423000;14.29074500;2024-01-06T03:22:35;11.10;71.20
6556;DHT22;3311;48.32423000;14.29074500;2024-01-06T03:25:05;11.10;71.50
6556;DHT22;3311;48.32423000;14.29074500;2024-01-06T03:27:33;11.00;71.70
6556;DHT22;3311;48.32423000;14.29074500;2024-01-06T03:30:01;11.00;72.10
6556;DHT22;3311;48.32423000;14.29074500;2024-01-06T03:32:30;11.00;72.20
6556;DHT22;3311;48.32423000;14.29074500;2024-01-06T03:34:58;11.00;71.90
6556;DHT22;3311;48.32423000;14.29074500;2024-01-06T03:37:25;10.90;72.20
6556;DHT22;3311;48.32423000;14.29074500;2024-01-06T03:39:52;11.00;72.20
6556;DHT22;3311;48.32423000;14.29074500;2024-01-06T03:42:20;11.10;72.00
6556;DHT22;3311;48.32423000;14.29074500;2024-01-06T03:44:47;11.00;72.10
6556;DHT22;3311;48.32423000;14.29074500;2024-01-06T03:47:15;11.00;72.20
6556;DHT22;3311;48.32423000;14.29074500;2024-01-06T03:49:43;10.90;72.30
6556;DHT22;3311;48.32423000;14.29074500;2024-01-06T03:52:11;10.90;72.40
6556;DHT22;3311;48.32423000;14.29074500;2024-01-06T03:54:39;11.00;72.30
6556;DHT22;3311;48.32423000;14.29074500;2024-01-06T03:57:07;11.10;72.00
6556;DHT22;3311;48.32423000;14.29074500;2024-01-06T03:59:34;11.20;71.80
6556;DHT22;3311;48.32423000;14.29074500;2024-01-06T04:02:02;11.20;71.60
6556;DHT22;3311;48.32423000;14.29074500;2024-01-06T04:04:29;11.10;71.60
6556;DHT22;3311;48.32423000;14.29074500;2024-01-06T04:06:58;11.10;71.60
6556;DHT22;3311;48.32423000;14.29074500;2024-01-06T04:09:27;11.10;71.80
6556;DHT22;3311;48.32423000;14.29074500;2024-01-06T04:11:54;11.20;71.80
6556;DHT22;3311;48.32423000;14.29074500;2024-01-06T04:14:22;11.20;71.70
6556;DHT22;3311;48.32423000;14.29074500;2024-01-06T04:16:49;11.20;71.70
6556;DHT22;3311;48.32423000;14.29074500;2024-01-06T04:19:18;11.10;71.80
6556;DHT22;3311;48.32423000;14.29074500;2024-01-06T04:21:46;11.10;71.80
6556;DHT22;3311;48.32423000;14.29074500;2024-01-06T04:24:16;11.20;71.90
6556;DHT22;3311;48.32423000;14.29074500;2024-01-06T04:26:44;11.10;72.10
6556;DHT22;3311;48.32423000;14.29074500;2024-01-06T04:29:12;11.30;73.10
6556;DHT22;3311;48.32423000;14.29074500;2024-01-06T04:31:40;11.20;72.00
6556;DHT22;3311;48.32423000;14.29074500;2024-01-06T04:34:07;11.10;72.20
6556;DHT22;3311;48.32423000;14.29074500;2024-01-06T04:36:35;11.10;72.30
6556;DHT22;3311;48.32423000;14.29074500;2024-01-06T04:39:02;11.00;72.60
6556;DHT22;3311;48.32423000;14.29074500;2024-01-06T04:41:31;11.10;72.60
6556;DHT22;3311;48.32423000;14.29074500;2024-01-06T04:43:58;11.10;72.60
6556;DHT22;3311;48.32423000;14.29074500;2024-01-06T04:46:26;11.00;72.80
6556;DHT22;3311;48.32423000;14.29074500;2024-01-06T04:48:53;11.00;72.90
6556;DHT22;3311;48.32423000;14.29074500;2024-01-06T04:51:21;11.10;72.60
6556;DHT22;3311;48.32423000;14.29074500;2024-01-06T04:53:48;11.00;72.60
6556;DHT22;3311;48.32423000;14.29074500;2024-01-06T04:56:16;11.10;72.50
6556;DHT22;3311;48.32423000;14.29074500;2024-01-06T04:58:44;11.10;72.40
6556;DHT22;3311;48.32423000;14.29074500;2024-01-06T05:01:12;10.90;72.70
6556;DHT22;3311;48.32423000;14.29074500;2024-01-06T05:03:39;11.00;72.80
6556;DHT22;3311;48.32423000;14.29074500;2024-01-06T05:06:06;11.00;72.50
6556;DHT22;3311;48.32423000;14.29074500;2024-01-06T05:08:34;11.00;72.60
6556;DHT22;3311;48.32423000;14.29074500;2024-01-06T05:11:05;9.60;72.40
6556;DHT22;3311;48.32423000;14.29074500;2024-01-06T05:13:33;11.10;72.70
6556;DHT22;3311;48.32423000;14.29074500;2024-01-06T05:16:02;11.10;72.30
6556;DHT22;3311;48.32423000;14.29074500;2024-01-06T05:18:29;11.10;72.40
6556;DHT22;3311;48.32423000;14.29074500;2024-01-06T05:20:57;11.20;72.30
6556;DHT22;3311;48.32423000;14.29074500;2024-01-06T05:23:24;11.10;71.80
6556;DHT22;3311;48.32423000;14.29074500;2024-01-06T05:25:52;11.20;72.30
6556;DHT22;3311;48.32423000;14.29074500;2024-01-06T05:28:19;11.10;72.20
6556;DHT22;3311;48.32423000;14.29074500;2024-01-06T05:30:46;11.10;72.30
6556;DHT22;3311;48.32423000;14.29074500;2024-01-06T05:33:16;11.20;72.30
6556;DHT22;3311;48.32423000;14.29074500;2024-01-06T05:35:44;11.20;72.30
6556;DHT22;3311;48.32423000;14.29074500;2024-01-06T05:38:11;11.10;72.50
6556;DHT22;3311;48.32423000;14.29074500;2024-01-06T05:40:39;11.00;72.70
6556;DHT22;3311;48.32423000;14.29074500;2024-01-06T05:43:06;11.00;72.70
6556;DHT22;3311;48.32423000;14.29074500;2024-01-06T05:45:33;11.00;72.80
6556;DHT22;3311;48.32423000;14.29074500;2024-01-06T05:48:03;11.00;72.90
6556;DHT22;3311;48.32423000;14.29074500;2024-01-06T05:50:32;11.10;72.90
6556;DHT22;3311;48.32423000;14.29074500;2024-01-06T05:53:00;11.00;73.40
6556;DHT22;3311;48.32423000;14.29074500;2024-01-06T05:55:27;10.90;73.30
6556;DHT22;3311;48.32423000;14.29074500;2024-01-06T05:57:55;11.00;73.30
6556;DHT22;3311;48.32423000;14.29074500;2024-01-06T06:00:22;11.00;73.00
6556;DHT22;3311;48.32423000;14.29074500;2024-01-06T06:02:49;11.00;73.00
6556;DHT22;3311;48.32423000;14.29074500;2024-01-06T06:05:17;11.00;73.10
6556;DHT22;3311;48.32423000;14.29074500;2024-01-06T06:07:46;11.00;73.10
6556;DHT22;3311;48.32423000;14.29074500;2024-01-06T06:10:13;11.00;73.30
6556;DHT22;3311;48.32423000;14.29074500;2024-01-06T06:12:41;11.00;73.80
6556;DHT22;3311;48.32423000;14.29074500;2024-01-06T06:15:09;11.00;73.30
6556;DHT22;3311;48.32423000;14.29074500;2024-01-06T06:17:37;11.00;73.10
6556;DHT22;3311;48.32423000;14.29074500;2024-01-06T06:20:05;11.10;73.00
6556;DHT22;3311;48.32423000;14.29074500;2024-01-06T06:22:33;11.10;72.80
6556;DHT22;3311;48.32423000;14.29074500;2024-01-06T06:25:02;11.00;73.60
6556;DHT22;3311;48.32423000;14.29074500;2024-01-06T06:27:29;11.00;73.10
6556;DHT22;3311;48.32423000;14.29074500;2024-01-06T06:29:56;11.10;73.20
6556;DHT22;3311;48.32423000;14.29074500;2024-01-06T06:32:24;11.10;73.00
6556;DHT22;3311;48.32423000;14.29074500;2024-01-06T06:34:51;11.10;73.10
6556;DHT22;3311;48.32423000;14.29074500;2024-01-06T06:37:19;11.00;73.30
6556;DHT22;3311;48.32423000;14.29074500;2024-01-06T06:39:46;11.10;73.40
6556;DHT22;3311;48.32423000;14.29074500;2024-01-06T06:42:15;11.00;73.40
6556;DHT22;3311;48.32423000;14.29074500;2024-01-06T06:44:42;10.90;73.60
6556;DHT22;3311;48.32423000;14.29074500;2024-01-06T06:47:10;10.90;73.80
6556;DHT22;3311;48.32423000;14.29074500;2024-01-06T06:49:37;11.00;73.60
6556;DHT22;3311;48.32423000;14.29074500;2024-01-06T06:52:05;11.00;73.50
6556;DHT22;3311;48.32423000;14.29074500;2024-01-06T06:54:33;11.00;73.70
6556;DHT22;3311;48.32423000;14.29074500;2024-01-06T06:57:00;11.00;73.60
6556;DHT22;3311;48.32423000;14.29074500;2024-01-06T06:59:30;11.00;73.50
6556;DHT22;3311;48.32423000;14.29074500;2024-01-06T07:01:57;11.00;73.60
6556;DHT22;3311;48.32423000;14.29074500;2024-01-06T07:04:25;11.00;73.40
6556;DHT22;3311;48.32423000;14.29074500;2024-01-06T07:06:53;11.00;73.60
6556;DHT22;3311;48.32423000;14.29074500;2024-01-06T07:09:20;10.90;73.70
6556;DHT22;3311;48.32423000;14.29074500;2024-01-06T07:11:50;11.00;73.70
6556;DHT22;3311;48.32423000;14.29074500;2024-01-06T07:14:17;11.00;73.80
6556;DHT22;3311;48.32423000;14.29074500;2024-01-06T07:16:46;11.00;73.70
6556;DHT22;3311;48.32423000;14.29074500;2024-01-06T07:19:14;11.10;73.50
6556;DHT22;3311;48.32423000;14.29074500;2024-01-06T07:21:42;11.10;73.50
6556;DHT22;3311;48.32423000;14.29074500;2024-01-06T07:24:09;11.10;73.50
6556;DHT22;3311;48.32423000;14.29074500;2024-01-06T07:26:36;11.20;73.40
6556;DHT22;3311;48.32423000;14.29074500;2024-01-06T07:29:04;11.20;73.30
6556;DHT22;3311;48.32423000;14.29074500;2024-01-06T07:31:31;11.20;73.30
6556;DHT22;3311;48.32423000;14.29074500;2024-01-06T07:34:00;11.20;73.30
6556;DHT22;3311;48.32423000;14.29074500;2024-01-06T07:36:27;11.20;73.20
6556;DHT22;3311;48.32423000;14.29074500;2024-01-06T07:38:54;11.10;73.30
6556;DHT22;3311;48.32423000;14.29074500;2024-01-06T07:41:22;11.10;73.50
6556;DHT22;3311;48.32423000;14.29074500;2024-01-06T07:43:49;11.00;73.80
6556;DHT22;3311;48.32423000;14.29074500;2024-01-06T07:46:17;10.90;74.20
6556;DHT22;3311;48.32423000;14.29074500;2024-01-06T07:48:44;11.00;74.10
6556;DHT22;3311;48.32423000;14.29074500;2024-01-06T07:51:13;11.00;74.00
6556;DHT22;3311;48.32423000;14.29074500;2024-01-06T07:53:40;11.10;74.00
6556;DHT22;3311;48.32423000;14.29074500;2024-01-06T07:56:08;11.10;73.90
6556;DHT22;3311;48.32423000;14.29074500;2024-01-06T07:58:35;11.10;73.70
6556;DHT22;3311;48.32423000;14.29074500;2024-01-06T08:01:03;11.10;73.90
6556;DHT22;3311;48.32423000;14.29074500;2024-01-06T08:03:30;11.10;73.90
6556;DHT22;3311;48.32423000;14.29074500;2024-01-06T08:05:57;11.20;73.80
6556;DHT22;3311;48.32423000;14.29074500;2024-01-06T08:08:26;11.20;73.80
6556;DHT22;3311;48.32423000;14.29074500;2024-01-06T08:10:53;11.30;73.70
6556;DHT22;3311;48.32423000;14.29074500;2024-01-06T08:13:21;11.30;73.40
6556;DHT22;3311;48.32423000;14.29074500;2024-01-06T08:15:48;11.30;73.40
6556;DHT22;3311;48.32423000;14.29074500;2024-01-06T08:18:16;11.30;74.00
6556;DHT22;3311;48.32423000;14.29074500;2024-01-06T08:20:43;11.50;73.90
6556;DHT22;3311;48.32423000;14.29074500;2024-01-06T08:23:11;11.70;73.10
6556;DHT22;3311;48.32423000;14.29074500;2024-01-06T08:25:39;11.70;72.70
6556;DHT22;3311;48.32423000;14.29074500;2024-01-06T08:28:07;11.60;72.80
6556;DHT22;3311;48.32423000;14.29074500;2024-01-06T08:30:34;11.50;72.90
6556;DHT22;3311;48.32423000;14.29074500;2024-01-06T08:33:02;11.50;73.20
6556;DHT22;3311;48.32423000;14.29074500;2024-01-06T08:35:29;11.40;73.30
6556;DHT22;3311;48.32423000;14.29074500;2024-01-06T08:37:57;11.40;73.50
6556;DHT22;3311;48.32423000;14.29074500;2024-01-06T08:40:24;11.30;73.70
6556;DHT22;3311;48.32423000;14.29074500;2024-01-06T08:42:54;11.30;73.80
6556;DHT22;3311;48.32423000;14.29074500;2024-01-06T08:45:21;11.30;73.80
6556;DHT22;3311;48.32423000;14.29074500;2024-01-06T08:47:49;11.30;74.00
6556;DHT22;3311;48.32423000;14.29074500;2024-01-06T08:50:16;11.30;74.10
6556;DHT22;3311;48.32423000;14.29074500;2024-01-06T08:52:43;11.30;74.10
6556;DHT22;3311;48.32423000;14.29074500;2024-01-06T08:55:11;11.30;74.20
6556;DHT22;3311;48.32423000;14.29074500;2024-01-06T08:57:38;11.30;74.20
6556;DHT22;3311;48.32423000;14.29074500;2024-01-06T09:00:08;11.40;74.30
6556;DHT22;3311;48.32423000;14.29074500;2024-01-06T09:02:37;11.40;74.00
6556;DHT22;3311;48.32423000;14.29074500;2024-01-06T09:05:05;11.50;73.90
6556;DHT22;3311;48.32423000;14.29074500;2024-01-06T09:07:32;11.50;73.70
6556;DHT22;3311;48.32423000;14.29074500;2024-01-06T09:10:00;11.50;74.00
6556;DHT22;3311;48.32423000;14.29074500;2024-01-06T09:12:27;11.40;74.30
6556;DHT22;3311;48.32423000;14.29074500;2024-01-06T09:14:55;11.40;74.20
6556;DHT22;3311;48.32423000;14.29074500;2024-01-06T09:17:25;11.50;74.10
6556;DHT22;3311;48.32423000;14.29074500;2024-01-06T09:19:52;11.50;74.10
6556;DHT22;3311;48.32423000;14.29074500;2024-01-06T09:22:20;11.50;74.00
6556;DHT22;3311;48.32423000;14.29074500;2024-01-06T09:24:47;11.70;75.40
6556;DHT22;3311;48.32423000;14.29074500;2024-01-06T09:27:15;11.90;75.60
6556;DHT22;3311;48.32423000;14.29074500;2024-01-06T09:29:42;11.90;75.50
6556;DHT22;3311;48.32423000;14.29074500;2024-01-06T09:32:10;11.90;75.60
6556;DHT22;3311;48.32423000;14.29074500;2024-01-06T09:34:40;11.90;76.80
6556;DHT22;3311;48.32423000;14.29074500;2024-01-06T09:37:07;12.10;76.10
6556;DHT22;3311;48.32423000;14.29074500;2024-01-06T09:39:40;12.00;75.70
6556;DHT22;3311;48.32423000;14.29074500;2024-01-06T09:42:10;11.90;75.10
6556;DHT22;3311;48.32423000;14.29074500;2024-01-06T09:44:38;11.80;75.60
6556;DHT22;3311;48.32423000;14.29074500;2024-01-06T09:47:06;11.80;75.70
6556;DHT22;3311;48.32423000;14.29074500;2024-01-06T09:49:40;11.80;75.50
6556;DHT22;3311;48.32423000;14.29074500;2024-01-06T09:52:14;11.70;75.50
6556;DHT22;3311;48.32423000;14.29074500;2024-01-06T09:54:46;11.70;75.50
6556;DHT22;3311;48.32423000;14.29074500;2024-01-06T09:57:15;11.70;75.30
6556;DHT22;3311;48.32423000;14.29074500;2024-01-06T09:59:44;11.60;75.40
6556;DHT22;3311;48.32423000;14.29074500;2024-01-06T10:02:14;11.70;75.50
6556;DHT22;3311;48.32423000;14.29074500;2024-01-06T10:04:44;11.70;75.20
6556;DHT22;3311;48.32423000;14.29074500;2024-01-06T10:07:11;11.80;75.00
6556;DHT22;3311;48.32423000;14.29074500;2024-01-06T10:09:40;11.80;74.60
6556;DHT22;3311;48.32423000;14.29074500;2024-01-06T10:12:08;11.70;74.50
6556;DHT22;3311;48.32423000;14.29074500;2024-01-06T10:14:36;11.80;74.50
6556;DHT22;3311;48.32423000;14.29074500;2024-01-06T10:17:06;11.70;74.70
6556;DHT22;3311;48.32423000;14.29074500;2024-01-06T10:19:35;11.70;74.40
6556;DHT22;3311;48.32423000;14.29074500;2024-01-06T10:22:05;11.70;74.20
6556;DHT22;3311;48.32423000;14.29074500;2024-01-06T10:24:34;11.70;73.70
6556;DHT22;3311;48.32423000;14.29074500;2024-01-06T10:27:04;11.70;74.10
6556;DHT22;3311;48.32423000;14.29074500;2024-01-06T10:29:32;11.70;74.00
6556;DHT22;3311;48.32423000;14.29074500;2024-01-06T10:31:59;11.80;73.90
6556;DHT22;3311;48.32423000;14.29074500;2024-01-06T10:34:27;11.80;73.80
6556;DHT22;3311;48.32423000;14.29074500;2024-01-06T10:36:58;11.80;73.80
6556;DHT22;3311;48.32423000;14.29074500;2024-01-06T10:39:29;11.80;73.20
6556;DHT22;3311;48.32423000;14.29074500;2024-01-06T10:41:57;11.80;74.30
6556;DHT22;3311;48.32423000;14.29074500;2024-01-06T10:44:26;11.80;73.70
6556;DHT22;3311;48.32423000;14.29074500;2024-01-06T10:46:56;11.80;73.70
6556;DHT22;3311;48.32423000;14.29074500;2024-01-06T10:49:25;11.80;73.70
6556;DHT22;3311;48.32423000;14.29074500;2024-01-06T10:51:54;11.80;73.70
6556;DHT22;3311;48.32423000;14.29074500;2024-01-06T10:54:23;11.80;73.60
6556;DHT22;3311;48.32423000;14.29074500;2024-01-06T10:56:54;11.80;73.70
6556;DHT22;3311;48.32423000;14.29074500;2024-01-06T10:59:22;11.80;73.50
6556;DHT22;3311;48.32423000;14.29074500;2024-01-06T11:01:52;11.80;74.00
6556;DHT22;3311;48.32423000;14.29074500;2024-01-06T11:04:21;11.80;74.10
6556;DHT22;3311;48.32423000;14.29074500;2024-01-06T11:06:50;11.80;74.10
6556;DHT22;3311;48.32423000;14.29074500;2024-01-06T11:09:21;11.70;74.30
6556;DHT22;3311;48.32423000;14.29074500;2024-01-06T11:11:50;11.80;74.30
6556;DHT22;3311;48.32423000;14.29074500;2024-01-06T11:14:22;11.70;74.20
6556;DHT22;3311;48.32423000;14.29074500;2024-01-06T11:16:50;11.80;74.20
6556;DHT22;3311;48.32423000;14.29074500;2024-01-06T11:19:42;11.80;74.10
6556;DHT22;3311;48.32423000;14.29074500;2024-01-06T11:22:23;11.80;73.90
6556;DHT22;3311;48.32423000;14.29074500;2024-01-06T11:24:51;11.80;73.90
6556;DHT22;3311;48.32423000;14.29074500;2024-01-06T11:27:20;11.80;74.10
6556;DHT22;3311;48.32423000;14.29074500;2024-01-06T11:29:51;11.80;74.10
6556;DHT22;3311;48.32423000;14.29074500;2024-01-06T11:32:30;11.80;74.00
6556;DHT22;3311;48.32423000;14.29074500;2024-01-06T11:35:06;11.80;74.20
6556;DHT22;3311;48.32423000;14.29074500;2024-01-06T11:37:51;11.90;74.00
6556;DHT22;3311;48.32423000;14.29074500;2024-01-06T11:40:31;11.90;74.00
6556;DHT22;3311;48.32423000;14.29074500;2024-01-06T11:43:02;11.80;74.10
6556;DHT22;3311;48.32423000;14.29074500;2024-01-06T11:45:33;11.80;74.10
6556;DHT22;3311;48.32423000;14.29074500;2024-01-06T11:48:02;11.90;75.70
6556;DHT22;3311;48.32423000;14.29074500;2024-01-06T11:50:30;12.10;77.80
6556;DHT22;3311;48.32423000;14.29074500;2024-01-06T11:52:58;12.00;77.40
6556;DHT22;3311;48.32423000;14.29074500;2024-01-06T11:55:27;11.90;78.50
6556;DHT22;3311;48.32423000;14.29074500;2024-01-06T11:57:55;11.90;79.10
6556;DHT22;3311;48.32423000;14.29074500;2024-01-06T12:00:23;11.90;79.20
6556;DHT22;3311;48.32423000;14.29074500;2024-01-06T12:02:57;11.80;79.60
6556;DHT22;3311;48.32423000;14.29074500;2024-01-06T12:05:27;11.90;79.60
6556;DHT22;3311;48.32423000;14.29074500;2024-01-06T12:07:55;11.80;80.50
6556;DHT22;3311;48.32423000;14.29074500;2024-01-06T12:10:24;11.70;80.60
6556;DHT22;3311;48.32423000;14.29074500;2024-01-06T12:12:56;11.80;81.10
6556;DHT22;3311;48.32423000;14.29074500;2024-01-06T12:15:25;11.70;81.00
6556;DHT22;3311;48.32423000;14.29074500;2024-01-06T12:17:53;11.80;81.10
6556;DHT22;3311;48.32423000;14.29074500;2024-01-06T12:20:21;11.70;80.80
6556;DHT22;3311;48.32423000;14.29074500;2024-01-06T12:22:50;11.80;81.70
6556;DHT22;3311;48.32423000;14.29074500;2024-01-06T12:25:18;11.70;81.10
6556;DHT22;3311;48.32423000;14.29074500;2024-01-06T12:27:47;11.70;81.70
6556;DHT22;3311;48.32423000;14.29074500;2024-01-06T12:30:16;11.70;81.90
6556;DHT22;3311;48.32423000;14.29074500;2024-01-06T12:32:45;11.70;82.00
6556;DHT22;3311;48.32423000;14.29074500;2024-01-06T12:35:14;11.70;81.60
6556;DHT22;3311;48.32423000;14.29074500;2024-01-06T12:37:44;11.70;81.90
6556;DHT22;3311;48.32423000;14.29074500;2024-01-06T12:40:13;11.70;82.20
6556;DHT22;3311;48.32423000;14.29074500;2024-01-06T12:42:42;11.70;82.10
6556;DHT22;3311;48.32423000;14.29074500;2024-01-06T12:45:11;11.70;82.60
6556;DHT22;3311;48.32423000;14.29074500;2024-01-06T12:47:38;11.70;82.10
6556;DHT22;3311;48.32423000;14.29074500;2024-01-06T12:50:07;11.60;82.80
6556;DHT22;3311;48.32423000;14.29074500;2024-01-06T12:52:35;11.70;83.00
6556;DHT22;3311;48.32423000;14.29074500;2024-01-06T12:55:06;11.70;82.90
6556;DHT22;3311;48.32423000;14.29074500;2024-01-06T12:57:34;11.70;82.80
6556;DHT22;3311;48.32423000;14.29074500;2024-01-06T13:00:01;11.70;83.00
6556;DHT22;3311;48.32423000;14.29074500;2024-01-06T13:02:29;11.80;82.40
6556;DHT22;3311;48.32423000;14.29074500;2024-01-06T13:04:57;11.70;83.00
6556;DHT22;3311;48.32423000;14.29074500;2024-01-06T13:07:25;11.80;82.60
6556;DHT22;3311;48.32423000;14.29074500;2024-01-06T13:09:52;11.70;82.40
6556;DHT22;3311;48.32423000;14.29074500;2024-01-06T13:12:21;11.70;82.80
6556;DHT22;3311;48.32423000;14.29074500;2024-01-06T13:14:49;11.70;82.60
6556;DHT22;3311;48.32423000;14.29074500;2024-01-06T13:17:16;11.70;82.30
6556;DHT22;3311;48.32423000;14.29074500;2024-01-06T13:19:44;11.70;82.90
6556;DHT22;3311;48.32423000;14.29074500;2024-01-06T13:22:11;11.70;83.40
6556;DHT22;3311;48.32423000;14.29074500;2024-01-06T13:24:39;11.70;82.80
6556;DHT22;3311;48.32423000;14.29074500;2024-01-06T13:27:07;11.70;83.20
6556;DHT22;3311;48.32423000;14.29074500;2024-01-06T13:29:36;11.70;83.20
6556;DHT22;3311;48.32423000;14.29074500;2024-01-06T13:32:05;11.70;83.40
6556;DHT22;3311;48.32423000;14.29074500;2024-01-06T13:34:32;11.60;84.10
6556;DHT22;3311;48.32423000;14.29074500;2024-01-06T13:37:06;11.60;83.60
6556;DHT22;3311;48.32423000;14.29074500;2024-01-06T13:39:33;11.60;84.40